sensor_id;sensor_type;location;lat;lon;timestamp;temperature;humidity
51996;DHT22;38010;53.264;6.592;2023-04-01T00:00:55;15.80;99.90
51996;DHT22;38010;53.264;6.592;2023-04-01T00:03:22;15.80;99.90
51996;DHT22;38010;53.264;6.592;2023-04-01T00:05:48;15.80;99.90
51996;DHT22;38010;53.264;6.592;2023-04-01T00:08:15;15.80;99.90
51996;DHT22;38010;53.264;6.592;2023-04-01T00:10:41;15.80;99.90
51996;DHT22;38010;53.264;6.592;2023-04-01T00:13:07;15.80;99.90
51996;DHT22;38010;53.264;6.592;2023-04-01T00:15:33;15.80;99.90
51996;DHT22;38010;53.264;6.592;2023-04-01T00:17:58;15.70;99.90
51996;DHT22;38010;53.264;6.592;2023-04-01T00:20:24;15.70;99.90
51996;DHT22;38010;53.264;6.592;2023-04-01T00:22:50;15.70;99.90
51996;DHT22;38010;53.264;6.592;2023-04-01T00:25:16;15.70;99.90
51996;DHT22;38010;53.264;6.592;2023-04-01T00:27:42;15.70;99.90
51996;DHT22;38010;53.264;6.592;2023-04-01T00:30:08;15.70;99.90
51996;DHT22;38010;53.264;6.592;2023-04-01T00:32:34;15.70;99.90
51996;DHT22;38010;53.264;6.592;2023-04-01T00:35:00;15.70;99.90
51996;DHT22;38010;53.264;6.592;2023-04-01T00:37:27;15.70;99.90
51996;DHT22;38010;53.264;6.592;2023-04-01T00:39:53;15.70;99.90
51996;DHT22;38010;53.264;6.592;2023-04-01T00:42:19;15.70;99.90
51996;DHT22;38010;53.264;6.592;2023-04-01T00:44:50;15.60;99.90
51996;DHT22;38010;53.264;6.592;2023-04-01T00:47:16;15.60;99.90
51996;DHT22;38010;53.264;6.592;2023-04-01T00:49:45;15.70;99.90
51996;DHT22;38010;53.264;6.592;2023-04-01T00:52:15;15.60;99.90
51996;DHT22;38010;53.264;6.592;2023-04-01T00:54:46;15.60;99.90
51996;DHT22;38010;53.264;6.592;2023-04-01T00:57:29;15.60;99.90
51996;DHT22;38010;53.264;6.592;2023-04-01T00:59:57;15.60;99.90
51996;DHT22;38010;53.264;6.592;2023-04-01T01:02:23;15.60;99.90
51996;DHT22;38010;53.264;6.592;2023-04-01T01:04:49;15.60;99.90
51996;DHT22;38010;53.264;6.592;2023-04-01T01:15:47;15.60;99.90
51996;DHT22;38010;53.264;6.592;2023-04-01T01:24:17;15.60;99.90
51996;DHT22;38010;53.264;6.592;2023-04-01T01:37:39;15.50;99.90
51996;DHT22;38010;53.264;6.592;2023-04-01T01:40:09;15.60;99.90
51996;DHT22;38010;53.264;6.592;2023-04-01T01:42:40;15.60;99.90
51996;DHT22;38010;53.264;6.592;2023-04-01T01:45:09;15.50;99.90
51996;DHT22;38010;53.264;6.592;2023-04-01T01:47:35;15.50;99.90
51996;DHT22;38010;53.264;6.592;2023-04-01T01:50:03;15.50;99.90
51996;DHT22;38010;53.264;6.592;2023-04-01T01:52:30;15.50;99.90
51996;DHT22;38010;53.264;6.592;2023-04-01T01:54:57;15.50;99.90
51996;DHT22;38010;53.264;6.592;2023-04-01T01:57:28;15.50;99.90
51996;DHT22;38010;53.264;6.592;2023-04-01T01:59:58;15.50;99.90
51996;DHT22;38010;53.264;6.592;2023-04-01T02:02:27;15.50;99.90
51996;DHT22;38010;53.264;6.592;2023-04-01T02:04:57;15.50;99.90
51996;DHT22;38010;53.264;6.592;2023-04-01T02:07:31;15.50;99.90
51996;DHT22;38010;53.264;6.592;2023-04-01T02:09:58;15.50;99.90
51996;DHT22;38010;53.264;6.592;2023-04-01T02:12:24;15.50;99.90
51996;DHT22;38010;53.264;6.592;2023-04-01T02:14:59;15.50;99.90
51996;DHT22;38010;53.264;6.592;2023-04-01T02:17:29;15.50;99.90
51996;DHT22;38010;53.264;6.592;2023-04-01T02:20:09;15.50;99.90
51996;DHT22;38010;53.264;6.592;2023-04-01T02:22:49;15.50;99.90
51996;DHT22;38010;53.264;6.592;2023-04-01T02:25:22;15.50;99.90
51996;DHT22;38010;53.264;6.592;2023-04-01T02:27:49;15.40;99.90
51996;DHT22;38010;53.264;6.592;2023-04-01T02:30:17;15.40;99.90
51996;DHT22;38010;53.264;6.592;2023-04-01T02:32:43;15.40;99.90
51996;DHT22;38010;53.264;6.592;2023-04-01T02:35:11;15.50;99.90
51996;DHT22;38010;53.264;6.592;2023-04-01T02:37:39;15.40;99.90
51996;DHT22;38010;53.264;6.592;2023-04-01T02:40:09;15.50;99.90
51996;DHT22;38010;53.264;6.592;2023-04-01T02:42:36;15.50;99.90
51996;DHT22;38010;53.264;6.592;2023-04-01T02:45:03;15.40;99.90
51996;DHT22;38010;53.264;6.592;2023-04-01T02:47:29;15.40;99.90
51996;DHT22;38010;53.264;6.592;2023-04-01T02:49:55;15.40;99.90
51996;DHT22;38010;53.264;6.592;2023-04-01T02:52:25;15.40;99.90
51996;DHT22;38010;53.264;6.592;2023-04-01T02:54:51;15.40;99.90
51996;DHT22;38010;53.264;6.592;2023-04-01T02:57:16;15.40;99.90
51996;DHT22;38010;53.264;6.592;2023-04-01T02:59:42;15.40;99.90
51996;DHT22;38010;53.264;6.592;2023-04-01T03:02:08;15.40;99.90
51996;DHT22;38010;53.264;6.592;2023-04-01T03:04:33;15.40;99.90
51996;DHT22;38010;53.264;6.592;2023-04-01T03:06:59;15.40;99.90
51996;DHT22;38010;53.264;6.592;2023-04-01T03:09:25;15.40;99.90
51996;DHT22;38010;53.264;6.592;2023-04-01T03:11:51;15.40;99.90
51996;DHT22;38010;53.264;6.592;2023-04-01T03:14:16;15.40;99.90
51996;DHT22;38010;53.264;6.592;2023-04-01T03:16:42;15.40;99.90
51996;DHT22;38010;53.264;6.592;2023-04-01T03:19:08;15.40;99.90
51996;DHT22;38010;53.264;6.592;2023-04-01T03:21:34;15.40;99.90
51996;DHT22;38010;53.264;6.592;2023-04-01T03:23:59;15.40;99.90
51996;DHT22;38010;53.264;6.592;2023-04-01T03:26:25;15.40;99.90
51996;DHT22;38010;53.264;6.592;2023-04-01T03:28:52;15.40;99.90
51996;DHT22;38010;53.264;6.592;2023-04-01T03:31:18;15.40;99.90
51996;DHT22;38010;53.264;6.592;2023-04-01T03:33:44;15.40;99.90
51996;DHT22;38010;53.264;6.592;2023-04-01T03:36:10;15.40;99.90
51996;DHT22;38010;53.264;6.592;2023-04-01T03:38:38;15.40;99.90
51996;DHT22;38010;53.264;6.592;2023-04-01T03:41:05;15.30;99.90
51996;DHT22;38010;53.264;6.592;2023-04-01T03:43:30;15.40;99.90
51996;DHT22;38010;53.264;6.592;2023-04-01T03:45:56;15.40;99.90
51996;DHT22;38010;53.264;6.592;2023-04-01T03:48:25;15.30;99.90
51996;DHT22;38010;53.264;6.592;2023-04-01T03:50:51;15.30;99.90
51996;DHT22;38010;53.264;6.592;2023-04-01T03:53:17;15.30;99.90
51996;DHT22;38010;53.264;6.592;2023-04-01T03:55:43;15.30;99.90
51996;DHT22;38010;53.264;6.592;2023-04-01T03:58:09;15.30;99.90
51996;DHT22;38010;53.264;6.592;2023-04-01T04:00:35;15.30;99.90
51996;DHT22;38010;53.264;6.592;2023-04-01T04:03:01;15.30;99.90
51996;DHT22;38010;53.264;6.592;2023-04-01T04:05:27;15.30;99.90
51996;DHT22;38010;53.264;6.592;2023-04-01T04:07:53;15.30;99.90
51996;DHT22;38010;53.264;6.592;2023-04-01T04:10:20;15.30;99.90
51996;DHT22;38010;53.264;6.592;2023-04-01T04:12:46;15.30;99.90
51996;DHT22;38010;53.264;6.592;2023-04-01T04:15:12;15.30;99.90
51996;DHT22;38010;53.264;6.592;2023-04-01T04:17:37;15.30;99.90
51996;DHT22;38010;53.264;6.592;2023-04-01T04:20:04;15.30;99.90
51996;DHT22;38010;53.264;6.592;2023-04-01T04:22:30;15.30;99.90
51996;DHT22;38010;53.264;6.592;2023-04-01T04:24:55;15.30;99.90
51996;DHT22;38010;53.264;6.592;2023-04-01T04:27:21;15.30;99.90
51996;DHT22;38010;53.264;6.592;2023-04-01T04:29:47;15.30;99.90
51996;DHT22;38010;53.264;6.592;2023-04-01T04:32:12;15.30;99.90
51996;DHT22;38010;53.264;6.592;2023-04-01T04:34:38;15.30;99.90
51996;DHT22;38010;53.264;6.592;2023-04-01T04:37:04;15.30;99.90
51996;DHT22;38010;53.264;6.592;2023-04-01T04:39:30;15.30;99.90
51996;DHT22;38010;53.264;6.592;2023-04-01T04:41:55;15.30;99.90
51996;DHT22;38010;53.264;6.592;2023-04-01T04:44:22;15.30;99.90
51996;DHT22;38010;53.264;6.592;2023-04-01T04:46:48;15.30;99.90
51996;DHT22;38010;53.264;6.592;2023-04-01T04:49:14;15.30;99.90
51996;DHT22;38010;53.264;6.592;2023-04-01T04:51:40;15.30;99.90
51996;DHT22;38010;53.264;6.592;2023-04-01T04:54:06;15.30;99.90
51996;DHT22;38010;53.264;6.592;2023-04-01T04:56:32;15.30;99.90
51996;DHT22;38010;53.264;6.592;2023-04-01T04:58:58;15.30;99.90
51996;DHT22;38010;53.264;6.592;2023-04-01T05:01:24;15.30;99.90
51996;DHT22;38010;53.264;6.592;2023-04-01T05:03:50;15.20;99.90
51996;DHT22;38010;53.264;6.592;2023-04-01T05:06:17;15.30;99.90
51996;DHT22;38010;53.264;6.592;2023-04-01T05:08:44;15.20;99.90
51996;DHT22;38010;53.264;6.592;2023-04-01T05:11:16;15.30;99.90
51996;DHT22;38010;53.264;6.592;2023-04-01T05:13:42;15.20;99.90
51996;DHT22;38010;53.264;6.592;2023-04-01T05:16:13;15.20;99.90
51996;DHT22;38010;53.264;6.592;2023-04-01T05:18:39;15.20;99.90
51996;DHT22;38010;53.264;6.592;2023-04-01T05:21:08;15.20;99.90
51996;DHT22;38010;53.264;6.592;2023-04-01T05:23:34;15.20;99.90
51996;DHT22;38010;53.264;6.592;2023-04-01T05:26:09;15.20;99.90
51996;DHT22;38010;53.264;6.592;2023-04-01T05:28:35;15.30;99.90
51996;DHT22;38010;53.264;6.592;2023-04-01T05:31:02;15.20;99.90
51996;DHT22;38010;53.264;6.592;2023-04-01T05:33:29;15.20;99.90
51996;DHT22;38010;53.264;6.592;2023-04-01T05:35:56;15.20;99.90
51996;DHT22;38010;53.264;6.592;2023-04-01T05:38:22;15.20;99.90
51996;DHT22;38010;53.264;6.592;2023-04-01T05:40:48;15.20;99.90
51996;DHT22;38010;53.264;6.592;2023-04-01T05:43:13;15.20;99.90
51996;DHT22;38010;53.264;6.592;2023-04-01T05:45:39;15.20;99.90
51996;DHT22;38010;53.264;6.592;2023-04-01T05:48:05;15.20;99.90
51996;DHT22;38010;53.264;6.592;2023-04-01T05:50:31;15.20;99.90
51996;DHT22;38010;53.264;6.592;2023-04-01T05:52:57;15.20;99.90
51996;DHT22;38010;53.264;6.592;2023-04-01T05:55:22;15.20;99.90
51996;DHT22;38010;53.264;6.592;2023-04-01T05:57:48;15.20;99.90
51996;DHT22;38010;53.264;6.592;2023-04-01T06:00:16;15.20;99.90
51996;DHT22;38010;53.264;6.592;2023-04-01T06:02:42;15.20;99.90
51996;DHT22;38010;53.264;6.592;2023-04-01T06:07:39;15.20;99.90
51996;DHT22;38010;53.264;6.592;2023-04-01T06:10:19;15.20;99.90
51996;DHT22;38010;53.264;6.592;2023-04-01T06:13:04;15.20;99.90
51996;DHT22;38010;53.264;6.592;2023-04-01T06:15:48;15.20;99.90
51996;DHT22;38010;53.264;6.592;2023-04-01T06:18:35;15.20;99.90
51996;DHT22;38010;53.264;6.592;2023-04-01T06:21:07;15.20;99.90
51996;DHT22;38010;53.264;6.592;2023-04-01T06:23:59;15.20;99.90
51996;DHT22;38010;53.264;6.592;2023-04-01T06:34:14;15.20;99.90
51996;DHT22;38010;53.264;6.592;2023-04-01T06:45:13;15.20;99.90
51996;DHT22;38010;53.264;6.592;2023-04-01T06:48:50;15.20;99.90
51996;DHT22;38010;53.264;6.592;2023-04-01T06:54:03;15.20;99.90
51996;DHT22;38010;53.264;6.592;2023-04-01T06:56:32;15.20;99.90
51996;DHT22;38010;53.264;6.592;2023-04-01T06:59:12;15.20;99.90
51996;DHT22;38010;53.264;6.592;2023-04-01T07:01:51;15.20;99.90
51996;DHT22;38010;53.264;6.592;2023-04-01T07:04:23;15.20;99.90
51996;DHT22;38010;53.264;6.592;2023-04-01T07:06:54;15.20;99.90
51996;DHT22;38010;53.264;6.592;2023-04-01T07:09:38;15.20;99.90
51996;DHT22;38010;53.264;6.592;2023-04-01T07:12:18;15.20;99.90
51996;DHT22;38010;53.264;6.592;2023-04-01T07:14:48;15.20;99.90
51996;DHT22;38010;53.264;6.592;2023-04-01T07:17:27;15.20;99.90
51996;DHT22;38010;53.264;6.592;2023-04-01T07:20:26;15.20;99.90
51996;DHT22;38010;53.264;6.592;2023-04-01T07:22:59;15.20;99.90
51996;DHT22;38010;53.264;6.592;2023-04-01T07:25:30;15.20;99.90
51996;DHT22;38010;53.264;6.592;2023-04-01T07:28:11;15.20;99.90
51996;DHT22;38010;53.264;6.592;2023-04-01T07:37:05;15.20;99.90
51996;DHT22;38010;53.264;6.592;2023-04-01T07:45:30;15.20;99.90
51996;DHT22;38010;53.264;6.592;2023-04-01T07:51:07;15.20;99.90
51996;DHT22;38010;53.264;6.592;2023-04-01T07:53:49;15.20;99.90
51996;DHT22;38010;53.264;6.592;2023-04-01T08:17:43;15.30;99.90
51996;DHT22;38010;53.264;6.592;2023-04-01T08:23:51;15.30;99.90
51996;DHT22;38010;53.264;6.592;2023-04-01T08:26:00;15.30;99.90
51996;DHT22;38010;53.264;6.592;2023-04-01T08:28:34;15.30;99.90
51996;DHT22;38010;53.264;6.592;2023-04-01T08:33:28;15.40;99.90
51996;DHT22;38010;53.264;6.592;2023-04-01T08:36:03;15.30;99.90
51996;DHT22;38010;53.264;6.592;2023-04-01T09:00:56;15.50;99.90
51996;DHT22;38010;53.264;6.592;2023-04-01T09:08:42;15.50;99.90
51996;DHT22;38010;53.264;6.592;2023-04-01T09:28:59;15.60;99.90
51996;DHT22;38010;53.264;6.592;2023-04-01T09:45:46;15.60;99.90
51996;DHT22;38010;53.264;6.592;2023-04-01T10:07:51;15.60;99.90
51996;DHT22;38010;53.264;6.592;2023-04-01T10:10:39;15.50;99.90
51996;DHT22;38010;53.264;6.592;2023-04-01T10:16:08;15.50;99.90
51996;DHT22;38010;53.264;6.592;2023-04-01T10:18:51;15.50;99.90
51996;DHT22;38010;53.264;6.592;2023-04-01T10:27:16;15.50;99.90
51996;DHT22;38010;53.264;6.592;2023-04-01T10:44:21;15.50;99.90
51996;DHT22;38010;53.264;6.592;2023-04-01T11:09:58;15.70;99.90
51996;DHT22;38010;53.264;6.592;2023-04-01T11:23:21;15.70;99.90
51996;DHT22;38010;53.264;6.592;2023-04-01T11:25:52;15.60;99.90
51996;DHT22;38010;53.264;6.592;2023-04-01T11:31:25;15.60;99.90
51996;DHT22;38010;53.264;6.592;2023-04-01T11:37:21;15.60;99.90
51996;DHT22;38010;53.264;6.592;2023-04-01T11:39:57;15.60;99.90
51996;DHT22;38010;53.264;6.592;2023-04-01T11:42:42;15.60;99.90
51996;DHT22;38010;53.264;6.592;2023-04-01T11:45:23;15.60;99.90
51996;DHT22;38010;53.264;6.592;2023-04-01T11:59:04;15.60;99.90
51996;DHT22;38010;53.264;6.592;2023-04-01T12:04:38;15.60;99.90
51996;DHT22;38010;53.264;6.592;2023-04-01T12:07:34;15.60;99.90
51996;DHT22;38010;53.264;6.592;2023-04-01T12:10:18;15.60;99.90
51996;DHT22;38010;53.264;6.592;2023-04-01T12:18:50;15.60;99.90
51996;DHT22;38010;53.264;6.592;2023-04-01T12:21:22;15.60;99.90
51996;DHT22;38010;53.264;6.592;2023-04-01T12:27:07;15.60;99.90
51996;DHT22;38010;53.264;6.592;2023-04-01T12:52:14;15.50;99.90
51996;DHT22;38010;53.264;6.592;2023-04-01T13:00:43;15.60;99.90
51996;DHT22;38010;53.264;6.592;2023-04-01T13:27:32;16.10;99.90
51996;DHT22;38010;53.264;6.592;2023-04-01T13:33:06;16.20;99.90
51996;DHT22;38010;53.264;6.592;2023-04-01T13:35:57;16.20;99.90
51996;DHT22;38010;53.264;6.592;2023-04-01T13:38:56;16.20;99.90
51996;DHT22;38010;53.264;6.592;2023-04-01T13:44:07;16.30;99.90
51996;DHT22;38010;53.264;6.592;2023-04-01T13:46:43;16.40;99.90
51996;DHT22;38010;53.264;6.592;2023-04-01T13:49:29;16.40;99.90
51996;DHT22;38010;53.264;6.592;2023-04-01T13:52:16;16.40;99.90
51996;DHT22;38010;53.264;6.592;2023-04-01T13:55:49;16.50;99.90
51996;DHT22;38010;53.264;6.592;2023-04-01T13:58:24;16.50;99.90
51996;DHT22;38010;53.264;6.592;2023-04-01T14:09:44;16.60;99.90
51996;DHT22;38010;53.264;6.592;2023-04-01T14:12:30;16.60;99.90
51996;DHT22;38010;53.264;6.592;2023-04-01T14:20:45;16.70;99.90
51996;DHT22;38010;53.264;6.592;2023-04-01T14:23:55;16.60;99.90
51996;DHT22;38010;53.264;6.592;2023-04-01T14:26:32;16.60;99.90
51996;DHT22;38010;53.264;6.592;2023-04-01T14:48:27;16.50;99.90
51996;DHT22;38010;53.264;6.592;2023-04-01T14:50:55;16.40;99.90
51996;DHT22;38010;53.264;6.592;2023-04-01T14:58:18;16.40;99.90
51996;DHT22;38010;53.264;6.592;2023-04-01T15:18:08;16.20;99.90
51996;DHT22;38010;53.264;6.592;2023-04-01T15:21:05;16.20;99.90
51996;DHT22;38010;53.264;6.592;2023-04-01T15:24:03;16.20;99.90
51996;DHT22;38010;53.264;6.592;2023-04-01T15:37:26;16.10;99.90
51996;DHT22;38010;53.264;6.592;2023-04-01T15:40:22;16.10;99.90
51996;DHT22;38010;53.264;6.592;2023-04-01T15:43:02;16.10;99.90
51996;DHT22;38010;53.264;6.592;2023-04-01T15:45:40;16.10;99.90
51996;DHT22;38010;53.264;6.592;2023-04-01T15:54:06;16.10;99.90
51996;DHT22;38010;53.264;6.592;2023-04-01T16:05:10;16.00;99.90
51996;DHT22;38010;53.264;6.592;2023-04-01T16:07:57;16.00;99.90
51996;DHT22;38010;53.264;6.592;2023-04-01T16:16:05;16.00;99.90
51996;DHT22;38010;53.264;6.592;2023-04-01T16:18:42;15.90;99.90
51996;DHT22;38010;53.264;6.592;2023-04-01T16:21:19;15.90;99.90
51996;DHT22;38010;53.264;6.592;2023-04-01T16:23:53;15.90;99.90
51996;DHT22;38010;53.264;6.592;2023-04-01T16:29:03;15.90;99.90
51996;DHT22;38010;53.264;6.592;2023-04-01T16:34:20;16.20;99.90
51996;DHT22;38010;53.264;6.592;2023-04-01T16:36:51;16.10;99.90
51996;DHT22;38010;53.264;6.592;2023-04-01T16:42:16;16.10;99.90
51996;DHT22;38010;53.264;6.592;2023-04-01T16:47:40;16.10;99.90
51996;DHT22;38010;53.264;6.592;2023-04-01T16:50:21;16.10;99.90
51996;DHT22;38010;53.264;6.592;2023-04-01T16:53:09;16.10;99.90
51996;DHT22;38010;53.264;6.592;2023-04-01T16:58:43;16.10;99.90
51996;DHT22;38010;53.264;6.592;2023-04-01T17:01:23;16.10;99.90
51996;DHT22;38010;53.264;6.592;2023-04-01T17:04:00;16.10;99.90
51996;DHT22;38010;53.264;6.592;2023-04-01T17:06:45;16.10;99.90
51996;DHT22;38010;53.264;6.592;2023-04-01T17:15:11;16.00;99.90
51996;DHT22;38010;53.264;6.592;2023-04-01T17:20:45;16.00;99.90
51996;DHT22;38010;53.264;6.592;2023-04-01T17:23:34;16.00;99.90
51996;DHT22;38010;53.264;6.592;2023-04-01T17:29:10;16.00;99.90
51996;DHT22;38010;53.264;6.592;2023-04-01T17:31:45;16.00;99.90
51996;DHT22;38010;53.264;6.592;2023-04-01T17:36:53;15.90;99.90
51996;DHT22;38010;53.264;6.592;2023-04-01T17:45:20;16.00;99.90
51996;DHT22;38010;53.264;6.592;2023-04-01T17:48:06;15.90;99.90
51996;DHT22;38010;53.264;6.592;2023-04-01T17:55:59;15.90;99.90
51996;DHT22;38010;53.264;6.592;2023-04-01T17:58:46;15.90;99.90
51996;DHT22;38010;53.264;6.592;2023-04-01T18:09:57;15.90;99.90
51996;DHT22;38010;53.264;6.592;2023-04-01T18:26:07;15.80;99.90
51996;DHT22;38010;53.264;6.592;2023-04-01T18:28:38;15.80;99.90
51996;DHT22;38010;53.264;6.592;2023-04-01T18:31:38;15.80;99.90
51996;DHT22;38010;53.264;6.592;2023-04-01T18:37:00;15.80;99.90
51996;DHT22;38010;53.264;6.592;2023-04-01T18:46:12;15.80;99.90
51996;DHT22;38010;53.264;6.592;2023-04-01T18:49:08;15.80;99.90
51996;DHT22;38010;53.264;6.592;2023-04-01T18:51:51;15.80;99.90
51996;DHT22;38010;53.264;6.592;2023-04-01T18:56:48;15.80;99.90
51996;DHT22;38010;53.264;6.592;2023-04-01T18:59:27;15.80;99.90
51996;DHT22;38010;53.264;6.592;2023-04-01T19:07:51;15.80;99.90
51996;DHT22;38010;53.264;6.592;2023-04-01T19:24:42;15.70;99.90
51996;DHT22;38010;53.264;6.592;2023-04-01T19:30:02;15.70;99.90
51996;DHT22;38010;53.264;6.592;2023-04-01T19:40:43;15.70;99.90
51996;DHT22;38010;53.264;6.592;2023-04-01T19:43:40;15.70;99.90
51996;DHT22;38010;53.264;6.592;2023-04-01T19:57:22;15.70;99.90
51996;DHT22;38010;53.264;6.592;2023-04-01T20:00:05;15.70;99.90
51996;DHT22;38010;53.264;6.592;2023-04-01T20:05:30;15.70;99.90
51996;DHT22;38010;53.264;6.592;2023-04-01T20:08:20;15.70;99.90
51996;DHT22;38010;53.264;6.592;2023-04-01T20:16:18;15.60;99.90
51996;DHT22;38010;53.264;6.592;2023-04-01T20:19:00;15.70;99.90
51996;DHT22;38010;53.264;6.592;2023-04-01T20:21:43;15.60;99.90
51996;DHT22;38010;53.264;6.592;2023-04-01T20:26:43;15.60;99.90
51996;DHT22;38010;53.264;6.592;2023-04-01T20:32:45;15.60;99.90
51996;DHT22;38010;53.264;6.592;2023-04-01T20:40:51;15.50;99.90
51996;DHT22;38010;53.264;6.592;2023-04-01T21:09:16;15.60;99.90
51996;DHT22;38010;53.264;6.592;2023-04-01T21:36:43;15.70;99.90
51996;DHT22;38010;53.264;6.592;2023-04-01T21:47:42;15.70;99.90
51996;DHT22;38010;53.264;6.592;2023-04-01T21:58:38;15.70;99.90
51996;DHT22;38010;53.264;6.592;2023-04-01T22:04:18;15.70;99.90
51996;DHT22;38010;53.264;6.592;2023-04-01T22:07:20;15.70;99.90
51996;DHT22;38010;53.264;6.592;2023-04-01T22:15:01;15.80;99.90
51996;DHT22;38010;53.264;6.592;2023-04-01T22:20:36;15.80;99.90
51996;DHT22;38010;53.264;6.592;2023-04-01T22:25:45;15.80;99.90
51996;DHT22;38010;53.264;6.592;2023-04-01T22:28:19;15.80;99.90
51996;DHT22;38010;53.264;6.592;2023-04-01T22:30:58;15.70;99.90
51996;DHT22;38010;53.264;6.592;2023-04-01T22:41:50;15.70;99.90
51996;DHT22;38010;53.264;6.592;2023-04-01T22:50:41;15.70;99.90
51996;DHT22;38010;53.264;6.592;2023-04-01T22:53:17;15.70;99.90
51996;DHT22;38010;53.264;6.592;2023-04-01T22:55:46;15.70;99.90
51996;DHT22;38010;53.264;6.592;2023-04-01T22:58:17;15.70;99.90
51996;DHT22;38010;53.264;6.592;2023-04-01T23:00:52;15.70;99.90
51996;DHT22;38010;53.264;6.592;2023-04-01T23:03:22;15.70;99.90
51996;DHT22;38010;53.264;6.592;2023-04-01T23:05:56;15.70;99.90
51996;DHT22;38010;53.264;6.592;2023-04-01T23:11:03;15.70;99.90
51996;DHT22;38010;53.264;6.592;2023-04-01T23:13:39;15.60;99.90
51996;DHT22;38010;53.264;6.592;2023-04-01T23:16:08;15.60;99.90
51996;DHT22;38010;53.264;6.592;2023-04-01T23:18:59;15.70;99.90
51996;DHT22;38010;53.264;6.592;2023-04-01T23:21:40;15.60;99.90
51996;DHT22;38010;53.264;6.592;2023-04-01T23:24:26;15.60;99.90
51996;DHT22;38010;53.264;6.592;2023-04-01T23:27:01;15.60;99.90
51996;DHT22;38010;53.264;6.592;2023-04-01T23:29:28;15.60;99.90
51996;DHT22;38010;53.264;6.592;2023-04-01T23:32:02;15.60;99.90
51996;DHT22;38010;53.264;6.592;2023-04-01T23:34:31;15.60;99.90
51996;DHT22;38010;53.264;6.592;2023-04-01T23:37:11;15.50;99.90
51996;DHT22;38010;53.264;6.592;2023-04-01T23:39:41;15.50;99.90
51996;DHT22;38010;53.264;6.592;2023-04-01T23:42:26;15.50;99.90
51996;DHT22;38010;53.264;6.592;2023-04-01T23:44:58;15.50;99.90
51996;DHT22;38010;53.264;6.592;2023-04-01T23:47:31;15.50;99.90
51996;DHT22;38010;53.264;6.592;2023-04-01T23:50:04;15.50;99.90
51996;DHT22;38010;53.264;6.592;2023-04-01T23:52:40;15.50;99.90
51996;DHT22;38010;53.264;6.592;2023-04-01T23:55:25;15.40;99.90
51996;DHT22;38010;53.264;6.592;2023-04-01T23:58:23;15.40;99.90
